• Join FlightAware (Why Join?)
  • Login
  • US Flag 
03:38PM EDT


 

Airport Tracker/Info


-or-


 

Live Flight TrackerFlight Track Log ✈ QJE1940 ✈ 10-Dec-2013 ✈ YAYE / AYQ - YBAS / ASP

Flight Track Log - Related Links

Times and Time Zones

All times are in EST time to prevent confusion due to time zone crossing. See the QJE1940 flight status page for this flight to view local times or setup timezone preferences in your user account.

Time Position Orientation Groundspeed Altitude Reporting Facility
EST Latitude Longitude Course Direction KTS MPH feet Rate Location/Type
07:49PM -25.1296 131.0659 63° Northeast 27,000  Level Aus ATC (Calculated)
07:52PM -25.0157 131.3130 63° Northeast  Level FlightAware Approximate
07:53PM -24.9758 131.3990 63° Northeast  Level FlightAware Approximate
07:54PM -24.9359 131.4850 63° Northeast  Level FlightAware Approximate
07:55PM -24.8960 131.5710 63° Northeast  Level FlightAware Approximate
07:55PM -24.8138 131.7474 63° Northeast 27,000  Level Aus ATC (Calculated)
07:56PM -24.7393 131.9066 63° Northeast 27,000  Level Aus ATC (Calculated)
07:57PM -24.7356 131.9147 63° Northeast  Level FlightAware Approximate
07:57PM -24.6784 132.0365 243° Southwest 27,000  Level Aus ATC (Calculated)
07:58PM -24.6931 132.0052 63° Northeast  Level FlightAware Approximate
07:58PM -24.6784 132.0365 63° Northeast 27,000  Level Aus ATC (Calculated)
07:59PM -24.6308 132.1378 63° Northeast  Level FlightAware Approximate
08:00PM -24.6012 132.2006 63° Northeast  Level FlightAware Approximate
08:00PM -24.4949 132.4255 243° Southwest 27,000  Level Aus ATC (Calculated)
08:01PM -24.5609 132.2861 63° Northeast  Level FlightAware Approximate
08:02PM -24.5878 132.3558 214° Southwest  Level FlightAware Approximate
08:02PM -24.4515 132.5167 237° Southwest 2,800  Level Aus ATC (Calculated)
08:03PM -24.5154 132.4101 34° Northeast  Level FlightAware Approximate
08:04PM -24.4754 132.4957 62° Northeast  Level Estimated
08:04PM -24.3207 132.7901 242° Southwest 2,800  Level Aus ATC (Calculated)
08:05PM -24.3306 132.7694 62° Northeast  Level FlightAware Approximate
08:06PM -24.2898 132.8544 62° Northeast  Level FlightAware Approximate
08:07PM -24.2219 132.9956 62° Northeast  Level FlightAware Approximate
08:07PM -24.1894 133.0630 62° Northeast 2,800  Level Aus ATC (Calculated)
08:08PM -24.1810 133.0805 62° Northeast  Level FlightAware Approximate
08:08PM -24.1456 133.1538 62° Northeast 2,800  Level Aus ATC (Calculated)
08:09PM -24.1143 133.2185 62° Northeast  Level FlightAware Approximate
08:10PM -24.0648 133.3206 62° Northeast  Level FlightAware Approximate
08:11PM -24.0237 133.4052 62° Northeast  Level FlightAware Approximate
08:11PM -24.0136 133.4259 62° Northeast 2,800  Level Aus ATC (Calculated)
08:11PM -23.9696 133.5165 62° Northeast 2,800  Level Aus ATC (Calculated)
08:13PM -23.8939 133.6715 62° Northeast  Level FlightAware Approximate
08:14PM -23.8526 133.7560 62° Northeast  Level FlightAware Approximate
08:15PM -23.8113 133.8404 62° Northeast  Level FlightAware Approximate
08:16PM -23.7927 133.8782 62° Northeast  Level FlightAware Approximate
08:17PM -23.8067 133.9022 62° Northeast  Level Estimated
08:18PM -23.8067 133.9022 62° Northeast  Level Estimated
08:19PM -23.8067 133.9022 62° Northeast  Level Estimated
08:20PM -23.8067 133.9022 62° Northeast  Level Estimated
08:21PM -23.8067 133.9022 62° Northeast  Level Estimated
08:22PM -23.8067 133.9022 62° Northeast  Level Estimated
08:23PM -23.8067 133.9022 62° Northeast  Level Estimated
08:24PM -23.8067 133.9022 62° Northeast  Level Estimated
08:25PM -23.8067 133.9022 62° Northeast  Level Estimated
08:26PM -23.8067 133.9022 62° Northeast  Level Estimated
08:27PM -23.8067 133.9022 62° Northeast  Level Estimated
08:28PM -23.8067 133.9022 62° Northeast  Level Estimated
08:29PM -23.8067 133.9022 62° Northeast  Level Estimated
08:30PM -23.8067 133.9022 62° Northeast  Level Estimated
08:31PM -23.8067 133.9022 62° Northeast  Level Estimated
08:32PM -23.8067 133.9022 62° Northeast  Level Estimated
08:33PM -23.8067 133.9022 62° Northeast  Level Estimated
08:34PM -23.8067 133.9022 62° Northeast  Level Estimated
08:35PM -23.8067 133.9022 62° Northeast  Level Estimated
08:36PM -23.8067 133.9022 62° Northeast  Level Estimated
08:37PM -23.8067 133.9022 62° Northeast  Level Estimated
08:38PM -23.8067 133.9022 62° Northeast  Level Estimated